createdAt,value
2023-01-10T00:01:24.780Z,8.50
2023-01-10T00:03:51.596Z,8.50
2023-01-10T00:06:18.223Z,8.50
2023-01-10T00:08:44.914Z,8.50
2023-01-10T00:11:30.119Z,8.50
2023-01-10T00:13:56.916Z,8.50
2023-01-10T00:16:23.917Z,8.50
2023-01-10T00:18:50.570Z,8.50
2023-01-10T00:21:17.371Z,8.50
2023-01-10T00:23:44.670Z,8.40
2023-01-10T00:26:12.222Z,8.50
2023-01-10T00:28:39.321Z,8.50
2023-01-10T00:31:07.151Z,8.50
2023-01-10T00:33:35.529Z,8.50
2023-01-10T00:36:04.354Z,8.50
2023-01-10T00:38:33.308Z,8.50
2023-01-10T00:41:00.406Z,8.50
2023-01-10T00:43:45.762Z,8.50
2023-01-10T00:46:13.761Z,8.50
2023-01-10T00:48:41.513Z,8.50
2023-01-10T00:51:08.186Z,8.50
2023-01-10T00:53:34.809Z,8.60
2023-01-10T00:56:01.408Z,8.60
2023-01-10T00:58:28.009Z,8.60
2023-01-10T01:00:54.743Z,8.60
2023-01-10T01:03:23.227Z,8.60
2023-01-10T01:05:50.009Z,8.60
2023-01-10T01:08:17.778Z,8.60
2023-01-10T01:10:44.783Z,8.60
2023-01-10T01:13:19.883Z,8.60
2023-01-10T01:15:47.154Z,8.70
2023-01-10T01:18:17.252Z,8.60
2023-01-10T01:20:45.880Z,8.70
2023-01-10T01:23:13.472Z,8.70
2023-01-10T01:25:40.578Z,8.70
2023-01-10T01:28:08.119Z,8.70
2023-01-10T01:30:34.827Z,8.70
2023-01-10T01:33:01.588Z,8.70
2023-01-10T01:35:28.420Z,8.70
2023-01-10T01:37:55.097Z,8.70
2023-01-10T01:40:23.182Z,8.70
2023-01-10T01:42:55.576Z,8.70
2023-01-10T01:45:33.339Z,8.70
2023-01-10T01:48:16.457Z,8.70
2023-01-10T01:50:53.334Z,8.70
2023-01-10T01:53:34.160Z,8.70
2023-01-10T01:56:07.945Z,8.70
2023-01-10T01:58:46.330Z,8.70
2023-01-10T02:01:14.829Z,8.70
2023-01-10T02:03:44.647Z,8.80
2023-01-10T02:06:12.041Z,8.80
2023-01-10T02:08:45.343Z,8.80
2023-01-10T02:11:12.065Z,8.80
2023-01-10T02:13:42.208Z,8.80
2023-01-10T02:16:09.471Z,8.80
2023-01-10T02:18:39.556Z,8.90
2023-01-10T02:21:33.235Z,8.80
2023-01-10T02:24:05.864Z,8.80
2023-01-10T02:26:57.333Z,8.80
2023-01-10T02:29:41.276Z,8.80
2023-01-10T02:32:14.601Z,8.90
2023-01-10T02:35:07.610Z,8.80
2023-01-10T02:37:58.968Z,8.90
2023-01-10T02:40:51.998Z,8.90
2023-01-10T02:43:23.776Z,8.90
2023-01-10T02:45:54.289Z,8.90
2023-01-10T02:48:21.296Z,8.90
2023-01-10T02:50:53.677Z,8.90
2023-01-10T02:53:30.956Z,8.90
2023-01-10T02:56:12.389Z,8.90
2023-01-10T02:59:00.832Z,8.90
2023-01-10T03:01:46.085Z,8.90
2023-01-10T03:04:31.675Z,8.90
2023-01-10T03:07:30.802Z,8.90
2023-01-10T03:10:14.758Z,8.90
2023-01-10T03:13:16.399Z,9.00
2023-01-10T03:15:44.653Z,8.90
2023-01-10T03:18:17.872Z,8.90
2023-01-10T03:20:48.049Z,8.90
2023-01-10T03:23:16.628Z,8.90
2023-01-10T03:25:44.608Z,8.90
2023-01-10T03:28:19.208Z,9.00
2023-01-10T03:30:51.923Z,8.90
2023-01-10T03:33:23.874Z,9.00
2023-01-10T03:36:26.809Z,8.90
2023-01-10T03:39:35.400Z,8.90
2023-01-10T03:42:21.910Z,8.90
2023-01-10T03:45:13.520Z,8.90
2023-01-10T03:47:45.598Z,8.90
2023-01-10T03:50:17.406Z,8.90
2023-01-10T03:52:44.697Z,8.90
2023-01-10T03:55:13.624Z,8.90
2023-01-10T03:57:42.604Z,8.90
2023-01-10T04:00:10.132Z,8.90
2023-01-10T04:02:36.728Z,8.90
2023-01-10T04:05:04.440Z,8.90
2023-01-10T04:07:31.425Z,8.90
2023-01-10T04:09:58.285Z,8.90
2023-01-10T04:12:24.971Z,9.00
2023-01-10T04:14:51.630Z,9.00
2023-01-10T04:17:18.653Z,8.90
2023-01-10T04:19:45.842Z,8.90
2023-01-10T04:22:12.736Z,9.00
2023-01-10T04:24:40.207Z,9.00
2023-01-10T04:27:07.200Z,8.90
2023-01-10T04:29:33.843Z,9.00
2023-01-10T04:32:01.063Z,9.00
2023-01-10T04:34:27.807Z,9.00
2023-01-10T04:36:54.600Z,9.00
2023-01-10T04:39:21.257Z,9.00
2023-01-10T04:41:47.859Z,9.00
2023-01-10T04:44:14.725Z,9.00
2023-01-10T04:46:41.419Z,9.00
2023-01-10T04:49:10.181Z,9.00
2023-01-10T04:51:36.872Z,9.00
2023-01-10T04:54:03.722Z,9.00
2023-01-10T04:56:30.344Z,9.00
2023-01-10T04:58:57.031Z,8.90
2023-01-10T05:01:25.244Z,8.90
2023-01-10T05:03:55.825Z,8.90
2023-01-10T05:06:24.020Z,8.90
2023-01-10T05:08:50.744Z,8.90
2023-01-10T05:11:17.415Z,8.90
2023-01-10T05:13:44.822Z,8.90
2023-01-10T05:16:12.165Z,8.90
2023-01-10T05:18:38.805Z,8.90
2023-01-10T05:21:08.214Z,8.90
2023-01-10T05:23:34.947Z,8.90
2023-01-10T05:26:14.249Z,8.90
2023-01-10T05:28:41.618Z,8.90
2023-01-10T05:31:10.328Z,8.90
2023-01-10T05:33:37.401Z,8.90
2023-01-10T05:36:07.820Z,8.90
2023-01-10T05:38:34.591Z,8.90
2023-01-10T05:41:01.344Z,8.90
2023-01-10T05:43:28.424Z,8.90
2023-01-10T05:45:55.195Z,8.90
2023-01-10T05:48:22.237Z,8.90
2023-01-10T05:50:52.327Z,8.90
2023-01-10T05:53:20.121Z,8.90
2023-01-10T05:55:57.741Z,8.90
2023-01-10T05:58:24.550Z,8.90
2023-01-10T06:00:51.397Z,8.90
2023-01-10T06:03:18.386Z,8.90
2023-01-10T06:05:46.736Z,8.90
2023-01-10T06:08:15.039Z,8.90
2023-01-10T06:10:42.297Z,8.90
2023-01-10T06:13:09.760Z,8.90
2023-01-10T06:15:36.793Z,8.90
2023-01-10T06:18:03.966Z,8.90
2023-01-10T06:20:30.682Z,8.90
2023-01-10T06:22:58.762Z,8.90
2023-01-10T06:25:25.534Z,8.90
2023-01-10T06:27:52.159Z,8.90
2023-01-10T06:30:18.828Z,8.90
2023-01-10T06:32:45.433Z,8.90
2023-01-10T06:35:12.196Z,8.90
2023-01-10T06:37:38.854Z,8.90
2023-01-10T06:40:06.336Z,8.90
2023-01-10T06:42:33.083Z,8.90
2023-01-10T06:44:59.714Z,8.80
2023-01-10T06:47:26.335Z,8.80
2023-01-10T06:49:53.105Z,8.80
2023-01-10T06:52:20.030Z,8.80
2023-01-10T06:54:46.744Z,8.80
2023-01-10T06:57:13.467Z,8.80
2023-01-10T06:59:40.127Z,8.70
2023-01-10T07:02:06.907Z,8.70
2023-01-10T07:04:33.755Z,8.70
2023-01-10T07:07:00.966Z,8.70
2023-01-10T07:09:28.514Z,8.70
2023-01-10T07:11:55.285Z,8.70
2023-01-10T07:14:22.018Z,8.70
2023-01-10T07:16:48.679Z,8.70
2023-01-10T07:19:17.550Z,8.70
2023-01-10T07:21:44.866Z,8.60
2023-01-10T07:24:11.521Z,8.70
2023-01-10T07:26:38.312Z,8.60
2023-01-10T07:29:05.302Z,8.60
2023-01-10T07:31:31.941Z,8.60
2023-01-10T07:33:58.653Z,8.60
2023-01-10T07:36:25.303Z,8.60
2023-01-10T07:38:51.931Z,8.50
2023-01-10T07:41:18.935Z,8.60
2023-01-10T07:43:45.592Z,8.60
2023-01-10T07:46:12.688Z,8.50
2023-01-10T07:48:41.871Z,8.50
2023-01-10T07:51:08.826Z,8.50
2023-01-10T07:53:35.540Z,8.50
2023-01-10T07:56:04.194Z,8.50
2023-01-10T07:58:31.239Z,8.50
2023-01-10T08:01:02.620Z,8.50
2023-01-10T08:03:30.292Z,8.50
2023-01-10T08:06:02.036Z,8.50
2023-01-10T08:08:29.267Z,8.40
2023-01-10T08:10:56.834Z,8.40
2023-01-10T08:13:23.801Z,8.40
2023-01-10T08:15:51.683Z,8.40
2023-01-10T08:18:19.967Z,8.40
2023-01-10T08:20:48.461Z,8.40
2023-01-10T08:23:15.455Z,8.40
2023-01-10T08:25:42.238Z,8.40
2023-01-10T08:28:09.103Z,8.40
2023-01-10T08:30:36.445Z,8.40
2023-01-10T08:33:04.798Z,8.40
2023-01-10T08:35:31.434Z,8.30
2023-01-10T08:38:00.026Z,8.30
2023-01-10T08:40:27.357Z,8.40
2023-01-10T08:43:02.297Z,8.40
2023-01-10T08:45:29.980Z,8.30
2023-01-10T08:47:57.100Z,8.30
2023-01-10T08:50:24.661Z,8.30
2023-01-10T08:52:51.588Z,8.30
2023-01-10T08:55:19.459Z,8.30
2023-01-10T08:57:46.293Z,8.30
2023-01-10T09:00:13.696Z,8.40
2023-01-10T09:02:41.000Z,8.30
2023-01-10T09:05:18.489Z,8.30
2023-01-10T09:07:53.345Z,8.40
2023-01-10T09:10:21.431Z,8.40
2023-01-10T09:12:57.114Z,8.40
2023-01-10T09:15:26.094Z,8.40
2023-01-10T09:18:00.925Z,8.30
2023-01-10T09:20:29.413Z,8.40
2023-01-10T09:22:56.969Z,8.40
2023-01-10T09:25:24.822Z,8.40
2023-01-10T09:27:59.366Z,8.30
2023-01-10T09:30:28.156Z,8.40
2023-01-10T09:32:56.740Z,8.40
2023-01-10T09:35:25.712Z,8.40
2023-01-10T09:38:00.939Z,8.40
2023-01-10T09:40:52.536Z,8.40
2023-01-10T09:43:45.226Z,8.40
2023-01-10T09:46:20.862Z,8.40
2023-01-10T09:48:55.451Z,8.40
2023-01-10T09:51:43.916Z,8.40
2023-01-10T09:54:18.684Z,8.40
2023-01-10T09:56:47.428Z,8.40
2023-01-10T09:59:21.231Z,8.40
2023-01-10T10:01:53.101Z,8.40
2023-01-10T10:04:27.302Z,8.40
2023-01-10T10:06:54.312Z,8.40
2023-01-10T10:09:26.830Z,8.50
2023-01-10T10:12:00.881Z,8.50
2023-01-10T10:14:44.345Z,8.50
2023-01-10T10:17:32.029Z,8.50
2023-01-10T10:20:10.602Z,8.50
2023-01-10T10:23:16.052Z,8.60
2023-01-10T10:26:02.537Z,8.50
2023-01-10T10:28:54.857Z,8.60
2023-01-10T10:31:59.796Z,8.50
2023-01-10T10:34:38.355Z,8.60
2023-01-10T10:37:48.615Z,8.60
2023-01-10T10:40:21.699Z,8.60
2023-01-10T10:42:51.806Z,8.60
2023-01-10T10:45:50.926Z,8.70
2023-01-10T10:48:34.062Z,8.70
2023-01-10T10:51:12.749Z,8.70
2023-01-10T10:53:39.381Z,8.70
2023-01-10T10:56:11.545Z,8.70
2023-01-10T10:58:41.746Z,8.80
2023-01-10T11:01:15.422Z,8.70
2023-01-10T11:03:57.022Z,8.80
2023-01-10T11:06:29.663Z,8.80
2023-01-10T11:09:00.104Z,8.80
2023-01-10T11:11:31.733Z,8.90
2023-01-10T11:14:00.741Z,8.90
2023-01-10T11:16:29.207Z,8.90
2023-01-10T11:19:14.672Z,8.90
2023-01-10T11:21:42.017Z,8.90
2023-01-10T11:24:32.362Z,8.90
2023-01-10T11:27:02.371Z,9.00
2023-01-10T11:29:39.737Z,9.00
2023-01-10T11:32:15.140Z,9.00
2023-01-10T11:34:48.889Z,9.10
2023-01-10T11:37:31.418Z,9.10
2023-01-10T11:40:25.166Z,9.10
2023-01-10T11:42:59.098Z,9.10
2023-01-10T11:45:26.387Z,9.10
2023-01-10T11:48:18.377Z,9.10
2023-01-10T11:50:50.422Z,9.20
2023-01-10T11:53:40.400Z,9.20
2023-01-10T11:56:09.469Z,9.20
2023-01-10T11:58:38.685Z,9.20
2023-01-10T12:01:06.042Z,9.20
2023-01-10T12:03:37.527Z,9.20
2023-01-10T12:06:16.745Z,9.20
2023-01-10T12:08:45.006Z,9.20
2023-01-10T12:11:18.124Z,9.20
2023-01-10T12:13:45.270Z,9.20
2023-01-10T12:16:42.267Z,9.20
2023-01-10T12:19:13.021Z,9.30
2023-01-10T12:21:42.152Z,9.30
2023-01-10T12:24:11.551Z,9.30
2023-01-10T12:26:38.920Z,9.30
2023-01-10T12:29:28.100Z,9.30
2023-01-10T12:31:57.275Z,9.30
2023-01-10T12:34:33.659Z,9.30
2023-01-10T12:37:24.014Z,9.40
2023-01-10T12:40:00.138Z,9.40
2023-01-10T12:42:51.604Z,9.40
2023-01-10T12:45:30.239Z,9.40
2023-01-10T12:48:09.329Z,9.40
2023-01-10T12:50:41.398Z,9.40
2023-01-10T12:53:37.552Z,9.40
2023-01-10T12:56:07.924Z,9.40
2023-01-10T12:58:47.227Z,9.40
2023-01-10T13:01:17.297Z,9.50
2023-01-10T13:03:46.633Z,9.50
2023-01-10T13:06:24.732Z,9.50
2023-01-10T13:08:52.144Z,9.50
2023-01-10T13:11:22.082Z,9.50
2023-01-10T13:13:58.252Z,9.50
2023-01-10T13:16:36.763Z,9.50
2023-01-10T13:19:12.794Z,9.60
2023-01-10T13:21:42.018Z,9.60
2023-01-10T13:24:23.971Z,9.60
2023-01-10T13:26:59.072Z,9.60
2023-01-10T13:29:38.204Z,9.60
2023-01-10T13:32:28.848Z,9.60
2023-01-10T13:35:09.581Z,9.60
2023-01-10T13:37:39.937Z,9.70
2023-01-10T13:40:07.389Z,9.60
2023-01-10T13:42:54.600Z,9.60
2023-01-10T13:45:26.153Z,9.70
2023-01-10T13:47:54.611Z,9.70
2023-01-10T13:50:24.571Z,9.70
2023-01-10T13:52:54.856Z,9.70
2023-01-10T13:55:34.326Z,9.70
2023-01-10T13:58:16.067Z,9.70
2023-01-10T14:01:13.942Z,9.70
2023-01-10T14:03:54.035Z,9.70
2023-01-10T14:06:29.662Z,9.80
2023-01-10T14:09:06.435Z,9.70
2023-01-10T14:11:45.115Z,9.70
2023-01-10T14:14:31.109Z,9.70
2023-01-10T14:17:21.404Z,9.70
2023-01-10T14:19:58.692Z,9.70
2023-01-10T14:22:31.261Z,9.80
2023-01-10T14:25:00.504Z,9.70
2023-01-10T14:27:51.230Z,9.70
2023-01-10T14:30:32.796Z,9.70
2023-01-10T14:33:21.481Z,9.70
2023-01-10T14:35:53.057Z,9.70
2023-01-10T14:38:32.610Z,9.70
2023-01-10T14:41:03.673Z,9.70
2023-01-10T14:43:38.722Z,9.70
2023-01-10T14:46:20.182Z,9.70
2023-01-10T14:48:53.338Z,9.70
2023-01-10T14:51:25.078Z,9.70
2023-01-10T14:54:03.684Z,9.70
2023-01-10T14:56:38.379Z,9.70
2023-01-10T14:59:17.405Z,9.70
2023-01-10T15:01:47.275Z,9.70
2023-01-10T15:04:19.580Z,9.70
2023-01-10T15:07:02.888Z,9.60
2023-01-10T15:09:31.540Z,9.60
2023-01-10T15:12:01.647Z,9.60
2023-01-10T15:14:29.095Z,9.60
2023-01-10T15:17:01.971Z,9.60
2023-01-10T15:19:35.783Z,9.60
2023-01-10T15:22:04.127Z,9.60
2023-01-10T15:24:35.049Z,9.60
2023-01-10T15:27:09.233Z,9.60
2023-01-10T15:29:36.927Z,9.60
2023-01-10T15:32:10.836Z,9.60
2023-01-10T15:34:39.484Z,9.60
2023-01-10T15:37:07.999Z,9.60
2023-01-10T15:39:38.368Z,9.60
2023-01-10T15:42:11.444Z,9.60
2023-01-10T15:44:40.994Z,9.60
2023-01-10T15:47:39.895Z,9.60
2023-01-10T15:50:18.879Z,9.60
2023-01-10T15:52:56.254Z,9.50
2023-01-10T15:55:37.891Z,9.50
2023-01-10T15:58:12.744Z,9.50
2023-01-10T16:00:47.691Z,9.50
2023-01-10T16:03:22.154Z,9.50
2023-01-10T16:05:59.905Z,9.50
2023-01-10T16:08:32.878Z,9.50
2023-01-10T16:11:03.013Z,9.50
2023-01-10T16:13:32.586Z,9.50
2023-01-10T16:16:00.785Z,9.50
2023-01-10T16:18:27.857Z,9.40
2023-01-10T16:20:58.040Z,9.40
2023-01-10T16:23:32.456Z,9.40
2023-01-10T16:26:01.610Z,9.50
2023-01-10T16:28:30.885Z,9.40
2023-01-10T16:30:57.578Z,9.40
2023-01-10T16:33:27.494Z,9.40
2023-01-10T23:04:25.902Z,10.90
2023-01-10T23:06:52.668Z,11.00
2023-01-10T23:09:19.320Z,11.00
2023-01-10T23:11:45.931Z,11.00
2023-01-10T23:14:12.538Z,11.10
2023-01-10T23:31:53.565Z,11.20
2023-01-10T23:34:20.348Z,11.20
2023-01-10T23:36:46.925Z,11.30
2023-01-10T23:39:13.579Z,11.30
2023-01-10T23:49:53.118Z,11.40
2023-01-10T23:52:19.720Z,11.40
2023-01-10T23:54:46.370Z,11.40
2023-01-10T23:57:13.095Z,11.40
2023-01-10T23:59:39.719Z,11.50
